Layton, Utah
Current Conditions -  °F | °C
As of 3:58 AM on Friday 31 Oct 2014 (Local Time) from KHIF Reporting Station
Clear Clear  
Wind Chill: 54°   Ceiling: Unl
Heat Index: 54°   Visibility: 10mi
Dew Point: 24°   Wind: 13mph
Humidity: 32%   Direction: 120°ESE
Pressure: 30.06"   Gusts: NA
Location:  41.07°N, 111.96°W
Report Text: KHIF 310958Z AUTO 12011KT 10SM CLR 12/M04 A3006 RMK AO2 SLP139 T01221042
Loading
Personal Weather Stations






























Interactive Weather Map
Tropical Storm Tracking
New forecast layout! Learn more

10-Day Weather Forecast

Advertisements
Track Severe Weather on mobile